Fort White, Florida
Current Conditions -  °F | °C
As of 4:35 AM on Tuesday 21 Oct 2014 (Local Time) from KLCQ Reporting Station
Haze Haze  
Wind Chill: 59°   Ceiling: Unl
Heat Index: 59°   Visibility: 1.5mi
Dew Point: 59°   Wind: 3mph
Humidity: 100%   Direction: 270°W
Pressure: 29.95"   Gusts: NA
Location:  29.92°N, 82.71°W
Report Text: KLCQ 210835Z AUTO 27003KT 1 1/2SM BR SCT003 15/15 A2995 RMK AO2
Loading
Personal Weather Stations






























Interactive Weather Map
Tropical Storm Tracking
New forecast layout! Learn more

10-Day Weather Forecast

Advertisements
Track Severe Weather on mobile